createdAt,value
2019-03-21T00:01:45.300Z,17.02
2019-03-21T00:04:15.212Z,20.83
2019-03-21T00:06:44.923Z,18.87
2019-03-21T00:09:16.496Z,16.27
2019-03-21T00:11:59.795Z,13.87
2019-03-21T00:14:36.239Z,18.23
2019-03-21T00:17:06.336Z,14.63
2019-03-21T00:19:36.100Z,15.90
2019-03-21T00:22:06.168Z,13.87
2019-03-21T00:24:37.228Z,15.10
2019-03-21T00:27:08.164Z,15.47
2019-03-21T00:29:37.799Z,17.37
2019-03-21T00:32:07.468Z,14.87
2019-03-21T00:34:37.062Z,14.27
2019-03-21T00:37:06.761Z,18.97
2019-03-21T00:39:36.425Z,18.77
2019-03-21T00:42:09.163Z,19.50
2019-03-21T00:44:38.870Z,23.17
2019-03-21T00:47:09.072Z,21.37
2019-03-21T00:49:38.644Z,24.40
2019-03-21T00:52:08.387Z,21.20
2019-03-21T00:54:38.276Z,18.87
2019-03-21T00:57:07.888Z,18.93
2019-03-21T00:59:39.012Z,18.00
2019-03-21T01:02:08.595Z,19.73
2019-03-21T01:04:38.184Z,16.07
2019-03-21T01:07:08.124Z,19.07
2019-03-21T01:09:38.396Z,17.97
2019-03-21T01:12:09.120Z,17.53
2019-03-21T01:14:40.120Z,17.97
2019-03-21T01:17:09.807Z,15.73
2019-03-21T01:19:39.662Z,20.03
2019-03-21T01:22:09.536Z,18.17
2019-03-21T01:24:39.348Z,18.93
2019-03-21T01:27:09.908Z,18.27
2019-03-21T01:29:39.686Z,17.47
2019-03-21T01:32:24.244Z,13.35
2019-03-21T01:34:53.754Z,20.53
2019-03-21T01:37:23.541Z,17.17
2019-03-21T01:39:53.147Z,15.03
2019-03-21T01:42:22.756Z,14.77
2019-03-21T01:44:52.308Z,17.93
2019-03-21T01:47:21.859Z,19.85
2019-03-21T01:49:51.720Z,15.53
2019-03-21T01:52:21.267Z,17.67
2019-03-21T01:54:50.830Z,17.67
2019-03-21T01:57:20.915Z,19.33
2019-03-21T01:59:51.460Z,20.23
2019-03-21T02:02:22.774Z,15.65
2019-03-21T02:04:52.660Z,18.67
2019-03-21T02:07:25.211Z,16.43
2019-03-21T02:09:55.000Z,17.33
2019-03-21T02:12:24.852Z,17.23
2019-03-21T02:14:54.612Z,16.90
2019-03-21T02:17:24.478Z,17.63
2019-03-21T02:19:56.285Z,18.43
2019-03-21T02:22:26.099Z,16.02
2019-03-21T02:24:55.994Z,16.70
2019-03-21T02:27:25.572Z,15.08
2019-03-21T02:29:55.265Z,15.18
2019-03-21T02:32:24.953Z,16.77
2019-03-21T02:34:55.647Z,15.77
2019-03-21T02:37:25.417Z,15.60
2019-03-21T02:39:59.770Z,21.63
2019-03-21T02:42:26.980Z,13.90
2019-03-21T02:45:07.815Z,18.17
2019-03-21T02:47:28.201Z,16.90
2019-03-21T02:49:58.818Z,20.93
2019-03-21T02:52:28.599Z,17.73
2019-03-21T02:54:58.328Z,19.17
2019-03-21T02:57:28.049Z,17.87
2019-03-21T02:59:57.609Z,15.73
2019-03-21T03:02:27.241Z,19.13
2019-03-21T03:04:57.129Z,20.55
2019-03-21T03:07:26.921Z,18.63
2019-03-21T03:09:56.817Z,21.23
2019-03-21T03:12:27.208Z,27.97
2019-03-21T03:14:56.805Z,19.43
2019-03-21T03:17:26.997Z,18.87
2019-03-21T03:19:57.030Z,20.90
2019-03-21T03:22:26.811Z,21.80
2019-03-21T03:24:56.699Z,18.13
2019-03-21T03:27:26.320Z,22.40
2019-03-21T03:29:55.957Z,22.33
2019-03-21T03:32:25.467Z,19.87
2019-03-21T03:34:55.687Z,22.53
2019-03-21T03:37:25.233Z,24.97
2019-03-21T03:39:55.321Z,19.53
2019-03-21T03:42:25.530Z,20.53
2019-03-21T03:44:55.668Z,27.80
2019-03-21T03:47:26.355Z,23.70
2019-03-21T03:49:56.404Z,19.37
2019-03-21T03:52:26.742Z,21.03
2019-03-21T03:54:59.428Z,20.52
2019-03-21T03:57:29.562Z,18.97
2019-03-21T04:00:02.572Z,20.90
2019-03-21T04:02:33.916Z,20.93
2019-03-21T04:05:04.281Z,17.50
2019-03-21T04:07:34.189Z,17.37
2019-03-21T04:12:40.477Z,22.83
2019-03-21T04:15:11.620Z,27.30
2019-03-21T04:17:41.847Z,25.93
2019-03-21T04:20:13.588Z,26.60
2019-03-21T04:22:43.486Z,27.87
2019-03-21T04:25:16.677Z,26.47
2019-03-21T04:27:46.632Z,26.40
2019-03-21T04:30:16.617Z,24.53
2019-03-21T04:32:47.141Z,27.73
2019-03-21T04:35:17.938Z,28.93
2019-03-21T04:37:47.620Z,24.77
2019-03-21T04:40:17.204Z,26.73
2019-03-21T04:42:47.644Z,27.63
2019-03-21T04:45:18.809Z,27.30
2019-03-21T04:47:48.747Z,35.37
2019-03-21T04:50:21.014Z,24.57
2019-03-21T04:52:50.658Z,26.47
2019-03-21T04:55:20.915Z,22.98
2019-03-21T04:57:50.821Z,24.87
2019-03-21T05:00:25.647Z,26.30
2019-03-21T05:02:57.715Z,28.15
2019-03-21T05:05:27.662Z,22.73
2019-03-21T05:07:57.311Z,24.93
2019-03-21T05:10:26.983Z,26.30
2019-03-21T05:12:56.843Z,30.40
2019-03-21T05:15:31.936Z,22.20
2019-03-21T05:18:05.776Z,26.57
2019-03-21T05:20:35.876Z,26.50
2019-03-21T05:23:05.862Z,26.37
2019-03-21T05:25:35.860Z,25.72
2019-03-21T05:28:05.436Z,34.87
2019-03-21T05:30:41.468Z,27.33
2019-03-21T05:33:11.308Z,26.60
2019-03-21T05:35:41.765Z,29.77
2019-03-21T05:38:11.801Z,39.63
2019-03-21T05:40:41.699Z,38.93
2019-03-21T05:43:17.916Z,43.87
2019-03-21T05:45:47.827Z,30.13
2019-03-21T05:48:17.608Z,30.43
2019-03-21T05:50:47.191Z,30.07
2019-03-21T05:53:16.816Z,31.80
2019-03-21T05:55:46.852Z,33.17
2019-03-21T05:58:17.653Z,37.30
2019-03-21T06:00:47.515Z,35.40
2019-03-21T06:03:22.834Z,37.40
2019-03-21T06:05:56.197Z,33.47
2019-03-21T06:08:29.360Z,33.93
2019-03-21T06:10:59.176Z,36.00
2019-03-21T06:13:29.744Z,36.77
2019-03-21T06:16:07.024Z,42.67
2019-03-21T06:18:50.656Z,31.27
2019-03-21T06:21:48.184Z,32.60
2019-03-21T06:24:56.038Z,35.23
2019-03-21T06:27:33.528Z,32.63
2019-03-21T06:30:05.492Z,29.03
2019-03-21T06:32:36.223Z,26.73
2019-03-21T06:35:09.688Z,29.07
2019-03-21T06:37:39.336Z,26.27
2019-03-21T06:40:09.360Z,30.40
2019-03-21T06:42:39.213Z,25.85
2019-03-21T06:45:08.880Z,31.00
2019-03-21T06:47:40.641Z,27.47
2019-03-21T06:50:10.297Z,30.97
2019-03-21T06:52:40.827Z,29.03
2019-03-21T06:55:10.504Z,24.07
2019-03-21T07:00:16.338Z,23.93
2019-03-21T07:02:46.232Z,28.33
2019-03-21T07:08:05.028Z,24.60
2019-03-21T07:10:34.905Z,19.50
2019-03-21T07:13:04.569Z,25.57
2019-03-21T07:15:34.524Z,24.40
2019-03-21T07:18:04.268Z,27.30
2019-03-21T07:20:34.644Z,21.23
2019-03-21T07:23:04.436Z,19.53
2019-03-21T07:25:34.884Z,23.23
2019-03-21T07:28:04.800Z,20.80
2019-03-21T07:30:34.592Z,20.97
2019-03-21T07:33:04.676Z,23.73
2019-03-21T07:35:34.607Z,26.50
2019-03-21T07:38:04.487Z,19.67
2019-03-21T07:40:34.624Z,22.80
2019-03-21T07:43:04.652Z,26.27
2019-03-21T07:45:36.185Z,18.83
2019-03-21T07:48:06.224Z,28.50
2019-03-21T07:50:35.890Z,20.70
2019-03-21T07:53:05.793Z,21.73
2019-03-21T07:55:35.641Z,25.03
2019-03-21T07:58:06.352Z,19.75
2019-03-21T08:00:35.938Z,21.60
2019-03-21T08:03:05.644Z,22.40
2019-03-21T08:05:40.127Z,23.10
2019-03-21T08:08:06.991Z,21.33
2019-03-21T08:10:36.984Z,17.93
2019-03-21T08:13:07.160Z,20.10
2019-03-21T08:15:38.031Z,21.33
2019-03-21T08:18:08.729Z,21.53
2019-03-21T08:20:39.452Z,25.23
2019-03-21T08:23:09.520Z,28.63
2019-03-21T08:25:43.826Z,18.80
2019-03-21T08:28:14.097Z,20.17
2019-03-21T08:31:28.628Z,24.67
2019-03-21T08:33:58.794Z,21.20
2019-03-21T08:36:28.735Z,25.67
2019-03-21T08:38:58.408Z,24.90
2019-03-21T08:41:28.119Z,20.08
2019-03-21T08:43:57.772Z,25.07
2019-03-21T08:46:27.382Z,25.47
2019-03-21T08:48:57.288Z,21.33
2019-03-21T08:51:26.863Z,18.23
2019-03-21T08:53:56.644Z,19.83
2019-03-21T08:56:26.324Z,19.57
2019-03-21T08:58:56.004Z,21.00
2019-03-21T09:01:25.615Z,18.03
2019-03-21T09:03:55.264Z,19.90
2019-03-21T09:06:24.992Z,20.90
2019-03-21T09:08:54.569Z,19.70
2019-03-21T09:11:24.492Z,17.23
2019-03-21T09:13:54.720Z,18.07
2019-03-21T09:16:24.708Z,18.93
2019-03-21T09:18:54.728Z,18.57
2019-03-21T09:21:24.721Z,18.57
2019-03-21T09:23:54.925Z,19.17
2019-03-21T09:26:25.394Z,16.43
2019-03-21T09:28:55.349Z,18.90
2019-03-21T09:31:25.093Z,25.07
2019-03-21T09:33:55.008Z,20.30
2019-03-21T09:36:24.622Z,18.73
2019-03-21T09:38:54.464Z,16.97
2019-03-21T09:41:26.359Z,16.40
2019-03-21T09:43:56.274Z,22.67
2019-03-21T09:46:26.504Z,16.60
2019-03-21T09:48:56.068Z,19.30
2019-03-21T09:51:30.916Z,15.33
2019-03-21T09:54:08.922Z,38.43
2019-03-21T09:56:29.232Z,28.87
2019-03-21T09:58:59.600Z,15.70
2019-03-21T10:01:29.565Z,16.60
2019-03-21T10:04:00.172Z,30.70
2019-03-21T10:06:31.091Z,17.83
2019-03-21T10:09:00.760Z,24.87
2019-03-21T10:11:34.432Z,22.27
2019-03-21T10:14:04.558Z,21.62
2019-03-21T10:16:35.412Z,21.83
2019-03-21T10:19:05.228Z,21.07
2019-03-21T10:21:43.145Z,16.40
2019-03-21T10:24:06.456Z,18.27
2019-03-21T10:26:36.599Z,22.37
2019-03-21T10:29:08.066Z,18.13
2019-03-21T10:31:37.988Z,21.43
2019-03-21T10:34:07.578Z,17.67
2019-03-21T10:36:37.316Z,14.67
2019-03-21T10:41:43.729Z,16.10
2019-03-21T10:44:13.404Z,17.70
2019-03-21T10:46:45.073Z,17.13
2019-03-21T10:49:14.921Z,11.87
2019-03-21T10:51:54.479Z,14.65
2019-03-21T10:56:52.288Z,17.57
2019-03-21T10:59:21.895Z,16.57
2019-03-21T11:01:51.578Z,13.60
2019-03-21T11:04:21.461Z,15.17
2019-03-21T11:07:00.300Z,16.75
2019-03-21T11:12:06.120Z,11.77
2019-03-21T11:14:35.687Z,12.20
2019-03-21T11:17:05.308Z,16.37
2019-03-21T11:19:35.096Z,12.87
2019-03-21T11:22:06.510Z,17.13
2019-03-21T11:24:36.533Z,16.53
2019-03-21T11:27:06.763Z,16.63
2019-03-21T11:29:36.580Z,14.23
2019-03-21T11:32:06.572Z,14.60
2019-03-21T11:34:36.112Z,13.93
2019-03-21T11:37:06.329Z,15.07
2019-03-21T11:39:36.280Z,14.13
2019-03-21T11:42:05.947Z,18.13
2019-03-21T11:44:35.631Z,13.83
2019-03-21T11:47:05.209Z,11.60
2019-03-21T11:49:34.875Z,14.33
2019-03-21T11:52:05.312Z,8.83
2019-03-21T11:54:36.524Z,10.93
2019-03-21T11:57:06.158Z,12.23
2019-03-21T11:59:51.231Z,12.03
2019-03-21T12:02:10.876Z,13.07
2019-03-21T12:04:41.092Z,11.97
2019-03-21T12:07:12.492Z,14.27
2019-03-21T12:09:42.171Z,13.77
2019-03-21T12:12:11.798Z,14.80
2019-03-21T12:14:41.932Z,15.97
2019-03-21T12:17:12.945Z,13.77
2019-03-21T12:19:42.930Z,13.00
2019-03-21T12:22:12.536Z,15.10
2019-03-21T12:24:44.068Z,13.17
2019-03-21T12:27:13.761Z,22.30
2019-03-21T12:29:45.389Z,14.23
2019-03-21T12:32:15.000Z,16.83
2019-03-21T12:34:44.908Z,16.97
2019-03-21T12:37:14.839Z,18.60
2019-03-21T12:39:44.662Z,23.60
2019-03-21T12:42:15.920Z,16.90
2019-03-21T12:44:45.788Z,18.43
2019-03-21T12:47:16.204Z,18.73
2019-03-21T12:49:45.801Z,16.50
2019-03-21T12:52:15.638Z,18.87
2019-03-21T12:54:46.659Z,16.32
2019-03-21T12:57:16.504Z,18.85
2019-03-21T12:59:46.212Z,17.43
2019-03-21T13:02:15.873Z,17.63
2019-03-21T13:04:46.816Z,24.57
2019-03-21T13:07:18.166Z,19.87
2019-03-21T13:12:23.189Z,27.07
2019-03-21T13:14:52.853Z,21.87
2019-03-21T13:17:22.512Z,17.48
2019-03-21T13:22:28.785Z,20.37
2019-03-21T13:25:02.481Z,24.03
2019-03-21T13:27:32.179Z,21.70
2019-03-21T13:30:03.562Z,23.20
2019-03-21T13:32:33.285Z,21.60
2019-03-21T13:35:02.877Z,21.07
2019-03-21T13:37:32.544Z,20.67
2019-03-21T13:40:04.446Z,22.40
2019-03-21T13:42:34.448Z,25.45
2019-03-21T13:45:04.384Z,19.27
2019-03-21T13:47:34.252Z,21.53
2019-03-21T13:50:04.257Z,21.87
2019-03-21T13:52:34.444Z,22.33
2019-03-21T13:55:04.441Z,23.63
2019-03-21T13:57:34.332Z,18.07
2019-03-21T14:00:04.433Z,22.03
2019-03-21T14:02:34.416Z,17.93
2019-03-21T14:05:04.676Z,22.30
2019-03-21T14:07:35.628Z,21.00
2019-03-21T14:10:06.192Z,21.93
2019-03-21T14:12:36.057Z,24.17
2019-03-21T14:17:42.238Z,26.42
2019-03-21T14:20:15.476Z,17.43
2019-03-21T14:22:45.296Z,19.73
2019-03-21T14:25:16.416Z,18.13
2019-03-21T14:27:46.036Z,18.83
2019-03-21T14:30:16.435Z,23.87
2019-03-21T14:32:46.211Z,16.90
2019-03-21T14:35:17.327Z,23.60
2019-03-21T14:37:53.464Z,17.53
2019-03-21T14:40:23.345Z,24.23
2019-03-21T14:42:53.592Z,18.97
2019-03-21T14:45:24.333Z,15.40
2019-03-21T14:47:56.049Z,18.10
2019-03-21T14:50:25.776Z,15.87
2019-03-21T14:52:55.360Z,16.60
2019-03-21T14:55:25.172Z,16.47
2019-03-21T14:57:54.953Z,15.53
2019-03-21T15:00:24.921Z,19.43
2019-03-21T15:02:55.372Z,19.93
2019-03-21T15:05:25.544Z,16.70
2019-03-21T15:07:55.148Z,19.63
2019-03-21T15:10:25.092Z,16.07
2019-03-21T15:12:55.068Z,16.27
2019-03-21T15:15:25.056Z,18.20
2019-03-21T15:17:54.742Z,19.20
2019-03-21T15:20:24.335Z,15.55
2019-03-21T15:22:53.975Z,20.15
2019-03-21T15:25:23.862Z,18.05
2019-03-21T15:27:53.756Z,16.97
2019-03-21T15:30:23.745Z,17.37
2019-03-21T15:32:54.673Z,14.40
2019-03-21T15:35:25.492Z,15.73
2019-03-21T15:37:55.154Z,20.73
2019-03-21T15:40:25.137Z,19.50
2019-03-21T15:42:56.882Z,19.23
2019-03-21T15:45:26.629Z,18.73
2019-03-21T15:47:57.936Z,22.03
2019-03-21T15:50:37.346Z,19.20
2019-03-21T15:53:06.716Z,20.43
2019-03-21T15:55:36.412Z,24.77
2019-03-21T15:58:06.132Z,19.57
2019-03-21T16:00:40.157Z,19.67
2019-03-21T16:03:10.383Z,24.95
2019-03-21T16:05:41.228Z,17.40
2019-03-21T16:08:11.084Z,21.07
2019-03-21T16:10:40.936Z,25.73
2019-03-21T16:13:10.756Z,21.30
2019-03-21T16:15:40.352Z,20.43
2019-03-21T16:18:10.334Z,25.37
2019-03-21T16:20:40.253Z,17.63
2019-03-21T16:23:10.222Z,16.63
2019-03-21T16:25:39.872Z,20.57
2019-03-21T16:28:09.745Z,18.27
2019-03-21T16:30:39.448Z,16.73
2019-03-21T16:33:10.104Z,15.30
2019-03-21T16:35:39.749Z,16.50
2019-03-21T16:38:09.671Z,21.30
2019-03-21T16:40:39.308Z,17.90
2019-03-21T16:43:08.918Z,15.40
2019-03-21T16:45:38.569Z,14.27
2019-03-21T16:48:09.364Z,16.67
2019-03-21T16:50:39.498Z,18.52
2019-03-21T16:53:09.293Z,18.82
2019-03-21T16:55:39.248Z,18.60
2019-03-21T16:58:08.962Z,18.07
2019-03-21T17:00:39.460Z,15.10
2019-03-21T17:03:09.233Z,23.10
2019-03-21T17:05:39.644Z,21.33
2019-03-21T17:08:11.608Z,21.40
2019-03-21T17:10:40.799Z,21.53
2019-03-21T17:13:10.584Z,20.27
2019-03-21T17:15:40.521Z,19.00
2019-03-21T17:18:10.594Z,16.27
2019-03-21T17:20:40.317Z,21.90
2019-03-21T17:23:10.717Z,19.40
2019-03-21T17:25:40.634Z,20.80
2019-03-21T17:28:10.685Z,22.43
2019-03-21T17:30:41.081Z,31.23
2019-03-21T17:33:11.383Z,20.37
2019-03-21T17:35:41.384Z,24.43
2019-03-21T17:38:11.073Z,24.40
2019-03-21T17:40:41.122Z,20.03
2019-03-21T17:43:11.522Z,23.43
2019-03-21T17:45:41.216Z,21.70
2019-03-21T17:48:11.108Z,21.67
2019-03-21T17:50:40.696Z,21.67
2019-03-21T17:53:10.280Z,19.80
2019-03-21T17:55:39.993Z,25.77
2019-03-21T17:58:09.896Z,22.70
2019-03-21T18:03:14.708Z,26.37
2019-03-21T18:05:44.755Z,24.03
2019-03-21T18:08:14.386Z,21.87
2019-03-21T18:10:43.994Z,22.17
2019-03-21T18:13:13.624Z,22.70
2019-03-21T18:15:43.424Z,22.97
2019-03-21T18:18:13.136Z,18.63
2019-03-21T18:20:43.048Z,18.90
2019-03-21T18:23:12.660Z,22.17
2019-03-21T18:25:42.189Z,20.80
2019-03-21T18:28:11.804Z,20.88
2019-03-21T18:30:45.544Z,25.17
2019-03-21T18:33:15.504Z,24.30
2019-03-21T18:35:46.952Z,22.73
2019-03-21T18:38:17.012Z,29.23
2019-03-21T18:40:46.656Z,23.13
2019-03-21T18:43:16.480Z,20.73
2019-03-21T18:45:46.385Z,21.07
2019-03-21T18:48:16.276Z,17.17
2019-03-21T18:50:46.632Z,23.03
2019-03-21T18:53:17.120Z,17.53
2019-03-21T18:55:46.724Z,21.70
2019-03-21T18:58:16.381Z,23.23
2019-03-21T19:00:46.224Z,20.43
2019-03-21T19:03:19.472Z,21.90
2019-03-21T19:05:49.123Z,20.03
2019-03-21T19:08:19.184Z,23.35
2019-03-21T19:10:48.926Z,31.30
2019-03-21T19:13:18.604Z,28.93
2019-03-21T19:15:48.734Z,24.90
2019-03-21T19:18:18.676Z,23.33
2019-03-21T19:20:48.236Z,24.83
2019-03-21T19:23:17.984Z,27.60
2019-03-21T19:25:47.696Z,31.23
2019-03-21T19:28:18.528Z,29.40
2019-03-21T19:30:48.164Z,35.63
2019-03-21T19:33:18.462Z,24.83
2019-03-21T19:35:48.084Z,25.97
2019-03-21T19:38:18.387Z,27.30
2019-03-21T19:40:47.921Z,16.87
2019-03-21T19:43:17.869Z,31.37
2019-03-21T19:45:48.116Z,27.60
2019-03-21T19:48:18.007Z,23.23
2019-03-21T19:50:47.936Z,25.70
2019-03-21T19:53:17.517Z,33.77
2019-03-21T19:55:47.660Z,22.97
2019-03-21T19:58:18.752Z,33.93
2019-03-21T20:00:48.425Z,25.47
2019-03-21T20:03:18.039Z,24.40
2019-03-21T20:05:59.752Z,29.97
2019-03-21T20:08:20.452Z,27.82
2019-03-21T20:10:50.316Z,27.70
2019-03-21T20:13:21.680Z,23.53
2019-03-21T20:15:51.268Z,28.57
2019-03-21T20:18:21.000Z,26.82
2019-03-21T20:20:50.919Z,29.63
2019-03-21T20:23:20.596Z,31.13
2019-03-21T20:25:50.288Z,28.40
2019-03-21T20:28:20.189Z,24.63
2019-03-21T20:30:49.924Z,27.80
2019-03-21T20:33:20.199Z,26.40
2019-03-21T20:35:50.628Z,28.07
2019-03-21T20:38:20.568Z,28.60
2019-03-21T20:40:50.132Z,27.53
2019-03-21T20:43:19.895Z,27.60
2019-03-21T20:45:49.515Z,35.47
2019-03-21T20:48:28.991Z,33.33
2019-03-21T20:50:58.873Z,28.77
2019-03-21T20:53:28.547Z,34.90
2019-03-21T20:55:58.923Z,44.55
2019-03-21T20:58:28.909Z,37.73
2019-03-21T21:00:59.308Z,44.65
2019-03-21T21:03:31.048Z,38.33
2019-03-21T21:06:00.968Z,41.68
2019-03-21T21:08:31.847Z,39.40
2019-03-21T21:11:01.762Z,48.07
2019-03-21T21:13:31.765Z,47.10
2019-03-21T21:16:01.696Z,40.83
2019-03-21T21:18:31.594Z,45.40
2019-03-21T21:21:01.107Z,47.13
2019-03-21T21:23:30.787Z,42.65
2019-03-21T21:26:05.852Z,36.23
2019-03-21T21:28:33.343Z,51.07
2019-03-21T21:31:04.528Z,42.87
2019-03-21T21:33:36.364Z,43.97
2019-03-21T21:36:05.988Z,39.30
2019-03-21T21:38:35.729Z,43.53
2019-03-21T21:41:05.676Z,41.15
2019-03-21T21:43:35.451Z,43.17
2019-03-21T21:46:05.856Z,40.33
2019-03-21T21:48:35.507Z,36.07
2019-03-21T21:51:05.453Z,32.57
2019-03-21T21:53:35.465Z,39.93
2019-03-21T21:56:16.971Z,34.77
2019-03-21T21:58:37.180Z,36.13
2019-03-21T22:01:06.817Z,31.93
2019-03-21T22:03:36.766Z,34.07
2019-03-21T22:06:06.428Z,38.50
2019-03-21T22:08:36.407Z,32.87
2019-03-21T22:11:10.340Z,33.43
2019-03-21T22:13:47.044Z,38.48
2019-03-21T22:16:16.744Z,34.97
2019-03-21T22:18:46.563Z,32.30
2019-03-21T22:21:16.489Z,31.33
2019-03-21T22:23:46.118Z,35.38
2019-03-21T22:26:16.041Z,36.53
2019-03-21T22:28:45.595Z,35.85
2019-03-21T22:31:15.572Z,35.67
2019-03-21T22:33:45.648Z,35.83
2019-03-21T22:36:15.310Z,35.20
2019-03-21T22:38:46.341Z,35.23
2019-03-21T22:41:15.931Z,30.47
2019-03-21T22:43:45.918Z,36.70
2019-03-21T22:46:16.566Z,34.07
2019-03-21T22:48:46.373Z,31.33
2019-03-21T22:51:16.084Z,36.17
2019-03-21T22:53:46.035Z,36.77
2019-03-21T22:56:15.887Z,30.90
2019-03-21T22:58:45.777Z,36.47
2019-03-21T23:01:16.064Z,34.73
2019-03-21T23:03:45.668Z,35.43
2019-03-21T23:06:16.638Z,29.27
2019-03-21T23:08:46.163Z,37.30
2019-03-21T23:11:16.016Z,39.25
2019-03-21T23:13:45.876Z,36.77
2019-03-21T23:16:16.144Z,35.37
2019-03-21T23:18:45.949Z,32.20
2019-03-21T23:21:16.323Z,38.33
2019-03-21T23:23:46.820Z,50.23
2019-03-21T23:26:16.424Z,44.00
2019-03-21T23:28:47.165Z,36.75
2019-03-21T23:31:17.308Z,38.47
2019-03-21T23:33:48.102Z,43.30
2019-03-21T23:36:18.753Z,38.83
2019-03-21T23:38:48.308Z,46.20
2019-03-21T23:41:21.759Z,43.13
2019-03-21T23:43:51.342Z,39.03
2019-03-21T23:46:20.904Z,48.63
2019-03-21T23:48:50.828Z,50.27
2019-03-21T23:51:21.716Z,56.07
2019-03-21T23:53:51.536Z,50.48
2019-03-21T23:56:25.009Z,61.87
2019-03-21T23:58:54.716Z,49.70
